createdAt,value
2018-03-24T00:02:34.707Z,98772.61
2018-03-24T00:05:35.965Z,98764.61
2018-03-24T00:08:37.227Z,98760.73
2018-03-24T00:11:38.487Z,98764.36
2018-03-24T00:14:39.778Z,98766.20
2018-03-24T00:17:41.030Z,98759.94
2018-03-24T00:20:42.319Z,98764.77
2018-03-24T00:23:44.327Z,98755.86
2018-03-24T00:26:45.594Z,98752.83
2018-03-24T00:29:46.840Z,98754.89
2018-03-24T00:32:48.107Z,98749.47
2018-03-24T00:35:49.354Z,98757.95
2018-03-24T00:38:51.359Z,98749.55
2018-03-24T00:41:52.644Z,98746.51
2018-03-24T00:44:53.930Z,98743.52
2018-03-24T00:47:55.338Z,98742.44
2018-03-24T00:50:56.686Z,98745.64
2018-03-24T00:53:58.746Z,98750.53
2018-03-24T00:57:00.032Z,98740.17
2018-03-24T01:00:02.125Z,98746.05
2018-03-24T01:03:04.167Z,98751.25
2018-03-24T01:06:05.411Z,98738.84
2018-03-24T01:09:06.688Z,98746.30
2018-03-24T01:12:08.045Z,98737.37
2018-03-24T01:15:09.295Z,98730.34
2018-03-24T01:18:10.539Z,98734.48
2018-03-24T01:21:11.789Z,98735.63
2018-03-24T01:24:13.779Z,98735.77
2018-03-24T01:27:15.061Z,98725.09
2018-03-24T01:30:16.303Z,98721.91
2018-03-24T01:33:17.558Z,98732.36
2018-03-24T01:36:19.580Z,98730.25
2018-03-24T01:39:20.816Z,98727.12
2018-03-24T01:42:22.084Z,98725.25
2018-03-24T01:45:23.393Z,98721.83
2018-03-24T01:48:24.639Z,98735.85
2018-03-24T01:51:25.896Z,98730.13
2018-03-24T01:54:27.135Z,98739.54
2018-03-24T01:57:28.400Z,98735.50
2018-03-24T02:00:29.663Z,98734.95
2018-03-24T02:03:30.906Z,98736.48
2018-03-24T02:06:39.946Z,98738.86
2018-03-24T02:09:41.961Z,98734.16
2018-03-24T02:12:43.254Z,98734.52
2018-03-24T02:15:44.548Z,98722.36
2018-03-24T02:18:46.229Z,98720.58
2018-03-24T02:21:47.896Z,98718.70
2018-03-24T02:24:51.222Z,98715.80
2018-03-24T02:27:52.822Z,98716.45
2018-03-24T02:30:54.143Z,98724.61
2018-03-24T02:33:56.139Z,98717.94
2018-03-24T02:36:58.173Z,98719.81
2018-03-24T02:39:59.401Z,98719.41
2018-03-24T02:43:00.658Z,98718.39
2018-03-24T02:46:01.944Z,98714.94
2018-03-24T02:49:03.221Z,98723.41
2018-03-24T02:52:04.516Z,98714.88
2018-03-24T02:55:05.756Z,98712.80
2018-03-24T02:58:13.863Z,98720.08
2018-03-24T03:01:15.149Z,98723.09
2018-03-24T03:04:16.378Z,98725.16
2018-03-24T03:07:17.640Z,98724.93
2018-03-24T03:10:18.905Z,98722.47
2018-03-24T03:13:20.163Z,98720.98
2018-03-24T03:16:21.409Z,98727.86
2018-03-24T03:19:23.411Z,98731.95
2018-03-24T03:22:24.661Z,98724.10
2018-03-24T03:25:25.941Z,98718.27
2018-03-24T03:28:27.481Z,98720.56
2018-03-24T03:31:29.546Z,98731.44
2018-03-24T03:34:31.545Z,98722.11
2018-03-24T03:37:33.531Z,98718.36
2018-03-24T03:40:34.992Z,98725.64
2018-03-24T03:43:36.255Z,98727.96
2018-03-24T03:46:38.283Z,98723.88
2018-03-24T03:49:39.508Z,98726.10
2018-03-24T03:52:40.835Z,98726.95
2018-03-24T03:55:42.105Z,98729.38
2018-03-24T03:58:43.444Z,98726.28
2018-03-24T04:01:44.747Z,98732.42
2018-03-24T04:04:46.766Z,98724.68
2018-03-24T04:07:48.027Z,98722.08
2018-03-24T04:10:49.286Z,98721.02
2018-03-24T04:13:50.559Z,98722.20
2018-03-24T04:16:51.802Z,98716.72
2018-03-24T04:19:53.059Z,98724.38
2018-03-24T04:22:54.327Z,98727.82
2018-03-24T04:25:55.576Z,98722.41
2018-03-24T04:28:57.561Z,98724.88
2018-03-24T04:31:59.536Z,98722.38
2018-03-24T04:35:01.527Z,98735.37
2018-03-24T04:38:02.821Z,98728.00
2018-03-24T04:41:04.122Z,98725.02
2018-03-24T04:44:05.459Z,98728.93
2018-03-24T04:47:06.760Z,98722.59
2018-03-24T04:50:08.009Z,98732.13
2018-03-24T04:53:09.261Z,98726.33
2018-03-24T04:56:10.522Z,98727.55
2018-03-24T04:59:11.816Z,98732.67
2018-03-24T05:02:13.863Z,98726.47
2018-03-24T05:05:15.912Z,98733.07
2018-03-24T05:08:17.154Z,98722.91
2018-03-24T05:11:19.138Z,98727.19
2018-03-24T05:14:21.118Z,98732.46
2018-03-24T05:17:23.111Z,98708.12
2018-03-24T05:20:24.384Z,98715.31
2018-03-24T05:23:25.723Z,98723.91
2018-03-24T05:26:27.721Z,98720.14
2018-03-24T05:29:28.987Z,98726.78
2018-03-24T05:32:30.243Z,98720.31
2018-03-24T05:35:38.432Z,98722.81
2018-03-24T05:38:39.674Z,98722.79
2018-03-24T05:41:40.916Z,98730.66
2018-03-24T05:44:42.202Z,98725.23
2018-03-24T05:47:43.504Z,98732.89
2018-03-24T05:50:45.509Z,98733.77
2018-03-24T05:53:46.785Z,98729.38
2018-03-24T05:56:48.027Z,98735.28
2018-03-24T05:59:49.371Z,98725.37
2018-03-24T06:02:51.378Z,98739.98
2018-03-24T06:05:52.636Z,98745.75
2018-03-24T06:08:53.904Z,98745.78
2018-03-24T06:11:55.156Z,98746.60
2018-03-24T06:14:57.162Z,98746.10
2018-03-24T06:17:58.433Z,98742.80
2018-03-24T06:20:59.683Z,98750.09
2018-03-24T06:24:00.944Z,98751.85
2018-03-24T06:27:02.283Z,98751.17
2018-03-24T06:30:04.315Z,98749.78
2018-03-24T06:33:05.609Z,98756.30
2018-03-24T06:36:21.838Z,98743.23
2018-03-24T06:39:23.870Z,98750.84
2018-03-24T06:42:25.138Z,98752.59
2018-03-24T06:45:26.418Z,98741.91
2018-03-24T06:48:27.665Z,98753.53
2018-03-24T06:51:28.921Z,98750.94
2018-03-24T06:54:30.223Z,98748.54
2018-03-24T06:57:31.497Z,98756.87
2018-03-24T07:00:33.610Z,98749.14
2018-03-24T07:03:34.839Z,98744.19
2018-03-24T07:06:36.113Z,98758.34
2018-03-24T07:09:38.125Z,98758.37
2018-03-24T07:12:39.399Z,98759.20
2018-03-24T07:15:40.755Z,98763.69
2018-03-24T07:18:42.039Z,98764.89
2018-03-24T07:21:43.294Z,98765.97
2018-03-24T07:24:44.583Z,98769.46
2018-03-24T07:27:45.848Z,98760.35
2018-03-24T07:30:47.081Z,98763.15
2018-03-24T07:33:48.362Z,98767.23
2018-03-24T07:36:49.600Z,98771.66
2018-03-24T07:39:50.895Z,98768.94
2018-03-24T07:42:52.168Z,98777.63
2018-03-24T07:45:53.408Z,98774.80
2018-03-24T07:48:55.423Z,98787.66
2018-03-24T07:51:56.686Z,98778.39
2018-03-24T07:54:57.924Z,98785.17
2018-03-24T07:57:59.224Z,98784.53
2018-03-24T08:01:01.251Z,98790.27
2018-03-24T08:04:02.523Z,98790.61
2018-03-24T08:07:03.875Z,98795.34
2018-03-24T08:10:05.180Z,98797.18
2018-03-24T08:13:07.198Z,98797.84
2018-03-24T08:16:08.652Z,98802.21
2018-03-24T08:19:10.670Z,98797.35
2018-03-24T08:22:11.944Z,98805.34
2018-03-24T08:25:13.229Z,98801.23
2018-03-24T08:28:14.492Z,98804.18
2018-03-24T08:31:15.756Z,98805.59
2018-03-24T08:34:17.071Z,98804.61
2018-03-24T08:37:18.379Z,98808.88
2018-03-24T08:40:19.644Z,98810.85
2018-03-24T08:43:20.892Z,98811.11
2018-03-24T08:46:22.194Z,98811.66
2018-03-24T08:49:23.482Z,98815.33
2018-03-24T08:52:24.751Z,98822.70
2018-03-24T08:55:26.052Z,98814.17
2018-03-24T08:58:27.325Z,98817.40
2018-03-24T09:01:28.583Z,98824.28
2018-03-24T09:04:29.861Z,98822.58
2018-03-24T09:07:31.130Z,98821.14
2018-03-24T09:10:32.395Z,98823.70
2018-03-24T09:13:33.688Z,98828.54
2018-03-24T09:16:34.977Z,98829.95
2018-03-24T09:19:36.231Z,98827.79
2018-03-24T09:22:37.506Z,98815.09
2018-03-24T09:25:38.752Z,98825.45
2018-03-24T09:28:40.029Z,98820.78
2018-03-24T09:31:41.276Z,98820.45
2018-03-24T09:34:42.566Z,98815.95
2018-03-24T09:37:43.864Z,98814.65
2018-03-24T09:40:45.118Z,98821.52
2018-03-24T09:43:46.396Z,98819.53
2018-03-24T09:46:48.396Z,98823.50
2018-03-24T09:49:50.426Z,98809.88
2018-03-24T09:52:51.751Z,98814.40
2018-03-24T09:55:52.969Z,98817.66
2018-03-24T09:58:54.270Z,98806.06
2018-03-24T10:01:56.236Z,98803.08
2018-03-24T10:04:57.479Z,98808.77
2018-03-24T10:07:58.709Z,98811.33
2018-03-24T10:11:00.037Z,98804.97
2018-03-24T10:14:02.052Z,98799.69
2018-03-24T10:17:03.327Z,98814.28
2018-03-24T10:20:04.633Z,98800.83
2018-03-24T10:26:41.665Z,98800.75
2018-03-24T10:29:42.920Z,98795.92
2018-03-24T10:32:44.192Z,98788.36
2018-03-24T10:35:45.490Z,98792.01
2018-03-24T10:38:46.735Z,98790.80
2018-03-24T10:41:48.739Z,98791.27
2018-03-24T10:44:50.030Z,98795.21
2018-03-24T10:47:51.318Z,98794.75
2018-03-24T10:50:52.557Z,98789.50
2018-03-24T10:53:53.803Z,98783.80
2018-03-24T10:56:55.050Z,98778.75
2018-03-24T10:59:56.323Z,98785.30
2018-03-24T11:02:57.579Z,98793.27
2018-03-24T11:05:58.848Z,98785.22
2018-03-24T11:09:00.103Z,98779.20
2018-03-24T11:12:01.346Z,98779.11
2018-03-24T11:15:03.328Z,98772.23
2018-03-24T11:18:05.326Z,98774.73
2018-03-24T11:21:06.609Z,98764.94
2018-03-24T11:24:07.855Z,98772.80
2018-03-24T11:27:09.159Z,98764.84
2018-03-24T11:30:10.425Z,98762.94
2018-03-24T11:33:11.729Z,98765.48
2018-03-24T11:36:13.756Z,98759.98
2018-03-24T11:39:15.046Z,98762.56
2018-03-24T11:42:16.288Z,98764.47
2018-03-24T11:45:17.543Z,98756.89
2018-03-24T11:48:18.815Z,98756.94
2018-03-24T11:51:20.106Z,98763.45
2018-03-24T11:54:39.797Z,98765.83
2018-03-24T11:57:41.067Z,98758.13
2018-03-24T12:00:42.320Z,98758.69
2018-03-24T12:03:43.566Z,98754.48
2018-03-24T12:06:44.816Z,98763.73
2018-03-24T12:09:46.068Z,98760.19
2018-03-24T12:12:47.308Z,98755.41
2018-03-24T12:15:49.321Z,98759.00
2018-03-24T12:18:50.603Z,98761.63
2018-03-24T12:21:51.840Z,98756.45
2018-03-24T12:24:53.095Z,98750.75
2018-03-24T12:27:54.350Z,98760.98
2018-03-24T12:30:55.602Z,98751.79
2018-03-24T12:33:57.606Z,98758.16
2018-03-24T12:36:58.876Z,98757.48
2018-03-24T12:40:00.185Z,98756.34
2018-03-24T12:43:01.421Z,98768.07
2018-03-24T12:46:02.691Z,98762.75
2018-03-24T12:49:03.963Z,98755.42
2018-03-24T12:52:05.226Z,98761.77
2018-03-24T12:55:06.490Z,98760.91
2018-03-24T12:58:07.769Z,98758.19
2018-03-24T13:01:08.997Z,98753.62
2018-03-24T13:04:10.243Z,98750.25
2018-03-24T13:07:11.505Z,98757.20
2018-03-24T13:10:12.745Z,98758.42
2018-03-24T13:13:14.746Z,98751.64
2018-03-24T13:16:15.991Z,98761.22
2018-03-24T13:19:17.999Z,98746.39
2018-03-24T13:22:19.315Z,98742.38
2018-03-24T13:25:20.586Z,98748.20
2018-03-24T13:28:22.566Z,98746.52
2018-03-24T13:31:24.579Z,98749.01
2018-03-24T13:34:25.871Z,98749.86
2018-03-24T13:37:27.903Z,98746.92
2018-03-24T13:40:29.880Z,98755.31
2018-03-24T13:43:31.883Z,98751.70
2018-03-24T13:46:33.113Z,98756.18
2018-03-24T13:49:35.125Z,98759.44
2018-03-24T13:52:36.389Z,98758.14
2018-03-24T13:55:37.647Z,98755.59
2018-03-24T13:58:38.918Z,98754.61
2018-03-24T14:01:40.199Z,98759.13
2018-03-24T14:04:41.452Z,98744.82
2018-03-24T14:07:42.713Z,98754.65
2018-03-24T14:10:44.013Z,98746.63
2018-03-24T14:13:45.278Z,98747.38
2018-03-24T14:16:46.536Z,98750.16
2018-03-24T14:19:47.775Z,98750.14
2018-03-24T14:22:49.040Z,98747.78
2018-03-24T14:25:50.272Z,98744.88
2018-03-24T14:28:51.557Z,98750.19
2018-03-24T14:31:52.834Z,98740.25
2018-03-24T14:34:54.114Z,98743.45
2018-03-24T14:37:55.400Z,98750.48
2018-03-24T14:40:56.704Z,98742.27
2018-03-24T14:43:57.969Z,98744.08
2018-03-24T14:46:59.222Z,98740.79
2018-03-24T14:50:00.475Z,98745.62
2018-03-24T14:53:02.473Z,98740.64
2018-03-24T14:56:03.774Z,98745.80
2018-03-24T14:59:05.039Z,98736.30
2018-03-24T15:02:06.331Z,98739.19
2018-03-24T15:05:07.634Z,98734.19
2018-03-24T15:08:08.891Z,98741.55
2018-03-24T15:11:10.147Z,98738.74
2018-03-24T15:14:11.453Z,98737.14
2018-03-24T15:17:13.429Z,98734.83
2018-03-24T15:20:14.676Z,98740.20
2018-03-24T15:23:15.938Z,98737.34
2018-03-24T15:26:17.209Z,98737.64
2018-03-24T15:29:37.062Z,98735.17
2018-03-24T15:32:51.497Z,98751.12
2018-03-24T15:36:11.416Z,98740.40
2018-03-24T15:39:12.672Z,98738.03
2018-03-24T15:42:13.939Z,98742.70
2018-03-24T15:45:15.176Z,98745.89
2018-03-24T15:48:16.455Z,98746.95
2018-03-24T15:51:17.720Z,98744.58
2018-03-24T15:54:18.981Z,98746.48
2018-03-24T15:57:20.273Z,98750.77
2018-03-24T16:00:22.272Z,98752.70
2018-03-24T16:03:24.251Z,98752.64
2018-03-24T16:06:26.232Z,98757.77
2018-03-24T16:09:28.215Z,98745.64
2018-03-24T16:12:29.472Z,98751.78
2018-03-24T16:15:31.437Z,98751.20
2018-03-24T16:18:33.473Z,98753.59
2018-03-24T16:21:34.768Z,98753.45
2018-03-24T16:24:36.050Z,98755.27
2018-03-24T16:27:38.025Z,98757.91
2018-03-24T16:30:40.123Z,98765.38
2018-03-24T16:33:42.536Z,98767.59
2018-03-24T16:36:44.034Z,98767.30
2018-03-24T16:39:45.302Z,98765.80
2018-03-24T16:42:46.584Z,98772.39
2018-03-24T16:45:47.851Z,98769.97
2018-03-24T16:48:49.280Z,98777.59
2018-03-24T16:51:50.542Z,98775.59
2018-03-24T16:54:51.833Z,98781.48
2018-03-24T16:57:53.075Z,98769.30
2018-03-24T17:00:54.397Z,98781.52
2018-03-24T17:03:55.636Z,98774.77
2018-03-24T17:06:57.660Z,98781.62
2018-03-24T17:09:58.906Z,98789.63
2018-03-24T17:13:00.903Z,98782.95
2018-03-24T17:16:02.221Z,98783.61
2018-03-24T17:19:03.512Z,98794.98
2018-03-24T17:22:05.543Z,98788.30
2018-03-24T17:25:06.854Z,98802.86
2018-03-24T17:28:08.829Z,98793.70
2018-03-24T17:31:10.869Z,98805.00
2018-03-24T17:34:12.158Z,98806.45
2018-03-24T17:37:13.446Z,98816.69
2018-03-24T17:40:15.425Z,98810.56
2018-03-24T17:43:17.485Z,98815.21
2018-03-24T17:46:18.732Z,98814.31
2018-03-24T17:49:19.999Z,98813.27
2018-03-24T17:52:21.285Z,98811.39
2018-03-24T17:55:24.978Z,98813.15
2018-03-24T17:58:27.251Z,98819.66
2018-03-24T18:01:29.535Z,98818.53
2018-03-24T18:04:31.329Z,98829.50
2018-03-24T18:07:33.173Z,98824.11
2018-03-24T18:10:34.529Z,98835.00
2018-03-24T18:13:35.792Z,98834.31
2018-03-24T18:16:37.399Z,98842.86
2018-03-24T18:19:39.858Z,98838.91
2018-03-24T18:22:41.120Z,98847.42
2018-03-24T18:25:42.352Z,98838.84
2018-03-24T18:28:44.426Z,98839.95
2018-03-24T18:31:46.538Z,98846.59
2018-03-24T18:34:48.023Z,98849.52
2018-03-24T18:37:49.893Z,98849.38
2018-03-24T18:40:53.093Z,98851.80
2018-03-24T18:43:54.483Z,98854.62
2018-03-24T18:46:57.005Z,98854.62
2018-03-24T18:49:59.409Z,98858.33
2018-03-24T18:53:00.674Z,98854.58
2018-03-24T18:56:02.073Z,98854.19
2018-03-24T18:59:03.422Z,98849.34
2018-03-24T19:02:05.415Z,98858.17
2018-03-24T19:05:07.931Z,98863.41
2018-03-24T19:08:09.559Z,98862.30
2018-03-24T19:11:11.954Z,98874.35
2018-03-24T19:14:13.599Z,98871.72
2018-03-24T19:17:14.832Z,98868.92
2018-03-24T19:20:16.164Z,98881.63
2018-03-24T19:23:18.455Z,98869.51
2018-03-24T19:26:21.248Z,98876.30
2018-03-24T19:29:23.832Z,98878.27
2018-03-24T19:32:25.143Z,98886.69
2018-03-24T19:35:27.625Z,98883.64
2018-03-24T19:38:28.871Z,98881.73
2018-03-24T19:41:30.383Z,98888.75
2018-03-24T19:44:31.653Z,98885.27
2018-03-24T19:47:33.844Z,98891.26
2018-03-24T19:50:35.603Z,98880.25
2018-03-24T19:53:38.031Z,98885.94
2018-03-24T19:56:40.027Z,98880.08
2018-03-24T19:59:43.415Z,98890.96
2018-03-24T20:02:45.162Z,98888.14
2018-03-24T20:05:49.403Z,98881.12
2018-03-24T20:08:51.161Z,98882.44
2018-03-24T20:11:52.416Z,98880.97
2018-03-24T20:14:54.191Z,98894.16
2018-03-24T20:17:55.412Z,98888.91
2018-03-24T20:20:57.522Z,98890.55
2018-03-24T20:23:58.827Z,98896.94
2018-03-24T20:27:00.482Z,98898.45
2018-03-24T20:30:02.312Z,98900.52
2018-03-24T20:33:04.469Z,98892.30
2018-03-24T20:36:06.078Z,98899.39
2018-03-24T20:39:07.696Z,98893.16
2018-03-24T20:42:09.374Z,98899.11
2018-03-24T20:45:10.670Z,98899.62
2018-03-24T20:48:13.119Z,98895.78
2018-03-24T20:51:16.286Z,98909.09
2018-03-24T20:54:19.212Z,98904.02
2018-03-24T20:57:20.612Z,98909.06
2018-03-24T21:00:22.127Z,98901.61
2018-03-24T21:03:23.957Z,98905.00
2018-03-24T21:06:25.280Z,98912.39
2018-03-24T21:09:26.954Z,98916.72
2018-03-24T21:12:30.198Z,98915.27
2018-03-24T21:15:32.122Z,98916.38
2018-03-24T21:18:34.154Z,98919.48
2018-03-24T21:21:35.450Z,98913.56
2018-03-24T21:24:36.706Z,98918.47
2018-03-24T21:27:37.932Z,98921.05
2018-03-24T21:30:39.183Z,98918.59
2018-03-24T21:33:40.447Z,98917.66
2018-03-24T21:36:41.694Z,98925.22
2018-03-24T21:39:42.940Z,98920.39
2018-03-24T21:42:44.900Z,98919.55
2018-03-24T21:45:46.176Z,98922.98
2018-03-24T21:48:48.270Z,98919.90
2018-03-24T21:51:50.290Z,98927.16
2018-03-24T21:54:51.672Z,98925.94
2018-03-24T21:57:52.933Z,98948.08
2018-03-24T22:00:54.187Z,98939.53
2018-03-24T22:03:55.476Z,98932.03
2018-03-24T22:06:56.761Z,98948.80
2018-03-24T22:09:58.807Z,98945.80
2018-03-24T22:13:06.952Z,98945.77
2018-03-24T22:16:08.235Z,98951.53
2018-03-24T22:19:10.238Z,98939.39
2018-03-24T22:22:11.546Z,98945.66
2018-03-24T22:25:13.580Z,98946.07
2018-03-24T22:28:15.593Z,98941.22
2018-03-24T22:31:16.841Z,98944.67
2018-03-24T22:34:18.160Z,98945.99
2018-03-24T22:37:20.140Z,98945.23
2018-03-24T22:40:21.418Z,98941.05
2018-03-24T22:43:23.426Z,98945.27
2018-03-24T22:46:24.683Z,98944.85
2018-03-24T22:49:25.923Z,98943.16
2018-03-24T22:52:27.950Z,98941.13
2018-03-24T22:55:29.200Z,98945.41
2018-03-24T22:58:30.480Z,98936.74
2018-03-24T23:01:31.787Z,98946.41
2018-03-24T23:04:33.869Z,98943.23
2018-03-24T23:07:35.138Z,98943.20
2018-03-24T23:10:37.155Z,98938.97
2018-03-24T23:13:38.473Z,98930.63
2018-03-24T23:16:39.755Z,98928.28
2018-03-24T23:19:41.758Z,98928.77
2018-03-24T23:22:43.030Z,98924.91
2018-03-24T23:25:44.299Z,98921.45
2018-03-24T23:28:45.543Z,98933.00
2018-03-24T23:31:46.828Z,98933.97
2018-03-24T23:34:48.141Z,98933.08
2018-03-24T23:37:49.366Z,98935.89
2018-03-24T23:40:50.610Z,98940.63
2018-03-24T23:43:51.878Z,98921.61
2018-03-24T23:46:53.096Z,98943.71
2018-03-24T23:49:55.075Z,98940.84
2018-03-24T23:52:57.056Z,98946.00
2018-03-24T23:55:59.051Z,98942.42
2018-03-24T23:59:01.038Z,98938.31
